TimeEST,TemperatureF,Dew PointF,Humidity,Sea Level PressureIn,VisibilityMPH,Wind Direction,Wind SpeedMPH,Gust SpeedMPH,PrecipitationIn,Events,Conditions,WindDirDegrees,DateUTC
12:53 AM,28.0,19.0,69,30.06,10.0,SSW,9.2,-,N/A,,Mostly Cloudy,200,2012-11-25 05:53:00
1:53 AM,28.0,19.9,72,30.04,10.0,SSW,10.4,-,N/A,,Overcast,200,2012-11-25 06:53:00
2:53 AM,28.0,19.9,72,30.02,10.0,SSW,11.5,-,N/A,,Overcast,200,2012-11-25 07:53:00
3:53 AM,28.0,19.9,72,29.98,10.0,South,10.4,-,N/A,,Overcast,190,2012-11-25 08:53:00
4:53 AM,28.9,21.0,72,29.95,10.0,South,9.2,-,N/A,,Overcast,180,2012-11-25 09:53:00
5:53 AM,28.9,21.0,72,29.93,10.0,South,10.4,-,N/A,,Overcast,190,2012-11-25 10:53:00
6:53 AM,30.0,21.0,69,29.91,10.0,SSW,11.5,-,N/A,,Overcast,200,2012-11-25 11:53:00
7:53 AM,28.9,21.0,72,29.90,9.0,SSW,9.2,-,N/A,,Clear,200,2012-11-25 12:53:00
8:53 AM,30.0,21.9,72,29.90,10.0,SSW,10.4,-,N/A,,Clear,210,2012-11-25 13:53:00
9:53 AM,33.1,23.0,66,29.91,10.0,SW,10.4,-,N/A,,Clear,230,2012-11-25 14:53:00
10:53 AM,36.0,24.1,62,29.90,10.0,WSW,11.5,-,N/A,,Clear,250,2012-11-25 15:53:00
11:53 AM,39.0,25.0,57,29.88,10.0,WSW,8.1,-,N/A,,Clear,240,2012-11-25 16:53:00
12:53 PM,39.9,25.0,55,29.88,10.0,WSW,8.1,17.3,N/A,,Clear,250,2012-11-25 17:53:00
1:53 PM,41.0,25.0,53,29.88,10.0,West,6.9,-,N/A,,Clear,270,2012-11-25 18:53:00
2:53 PM,42.1,25.0,51,29.88,10.0,WSW,9.2,-,N/A,,Clear,240,2012-11-25 19:53:00
3:53 PM,42.1,26.1,53,29.89,10.0,West,6.9,-,N/A,,Clear,260,2012-11-25 20:53:00
4:53 PM,39.0,26.1,60,29.91,10.0,West,8.1,-,N/A,,Clear,280,2012-11-25 21:53:00
5:53 PM,35.1,26.1,70,29.93,10.0,NW,6.9,-,N/A,,Clear,310,2012-11-25 22:53:00
6:53 PM,33.1,25.0,72,29.97,10.0,WNW,6.9,-,N/A,,Clear,300,2012-11-25 23:53:00
7:53 PM,33.1,25.0,72,29.98,5.0,North,3.5,-,N/A,,Haze,350,2012-11-26 00:53:00
8:53 PM,28.9,24.1,82,30.01,9.0,Calm,Calm,-,N/A,,Clear,0,2012-11-26 01:53:00
9:53 PM,28.0,24.1,85,30.02,8.0,South,3.5,-,N/A,,Clear,180,2012-11-26 02:53:00
10:53 PM,30.0,25.0,82,30.03,8.0,Calm,Calm,-,N/A,,Clear,0,2012-11-26 03:53:00
11:53 PM,30.0,25.0,82,30.04,8.0,SSW,3.5,-,N/A,,Clear,210,2012-11-26 04:53:00